createdAt,value
2023-03-02T03:50:28.788Z,23.55
2023-03-02T03:52:57.764Z,20.77
2023-03-02T03:55:29.530Z,19.48
2023-03-02T03:57:58.367Z,17.77
2023-03-02T04:00:27.578Z,21.10
2023-03-02T04:02:56.595Z,20.42
2023-03-02T04:05:25.796Z,19.85
2023-03-02T04:07:55.314Z,25.85
2023-03-02T04:10:24.270Z,22.15
2023-03-02T04:12:53.156Z,19.73
2023-03-02T04:15:22.156Z,22.42
2023-03-02T04:17:51.254Z,19.70
2023-03-02T04:20:21.743Z,20.88
2023-03-02T04:22:54.507Z,21.65
2023-03-02T04:25:26.129Z,18.42
2023-03-02T04:27:55.597Z,19.27
2023-03-02T04:30:27.402Z,16.63
2023-03-02T04:32:58.785Z,19.77
2023-03-02T04:35:27.849Z,20.95
2023-03-02T04:37:56.975Z,20.10
2023-03-02T04:40:26.096Z,19.70
2023-03-02T04:42:55.002Z,24.85
2023-03-02T04:45:24.030Z,18.02
2023-03-02T04:47:52.947Z,19.02
2023-03-02T04:50:21.883Z,18.73
2023-03-02T04:52:51.557Z,20.60
2023-03-02T04:55:23.500Z,19.95
2023-03-02T04:57:58.437Z,22.92
2023-03-02T05:00:30.577Z,17.95
2023-03-02T05:03:00.466Z,17.42
2023-03-02T05:05:30.069Z,18.95
2023-03-02T05:08:01.991Z,20.15
2023-03-02T05:10:31.090Z,17.60
2023-03-02T05:13:03.337Z,17.83
2023-03-02T05:15:35.647Z,20.13
2023-03-02T05:18:07.265Z,16.00
2023-03-02T05:20:37.122Z,18.10
2023-03-02T05:23:08.932Z,16.52
2023-03-02T05:25:39.423Z,17.35
2023-03-02T05:28:08.405Z,19.95
2023-03-02T05:30:38.685Z,21.15
2023-03-02T05:33:07.588Z,19.52
2023-03-02T05:35:36.895Z,16.65
2023-03-02T05:38:06.386Z,19.45
2023-03-02T05:40:35.302Z,19.00
2023-03-02T05:43:04.980Z,21.63
2023-03-02T05:45:37.722Z,17.23
2023-03-02T05:48:07.580Z,16.95
2023-03-02T05:50:36.581Z,18.58
2023-03-02T05:53:05.650Z,20.27
2023-03-02T05:55:38.220Z,16.67
2023-03-02T05:58:18.331Z,20.75
2023-03-02T06:00:50.262Z,20.30
2023-03-02T06:03:19.446Z,18.58
2023-03-02T06:05:52.050Z,19.58
2023-03-02T06:08:22.813Z,20.80
2023-03-02T06:10:51.953Z,19.38
2023-03-02T06:13:20.864Z,17.48
2023-03-02T06:15:49.871Z,17.10
2023-03-02T06:18:18.894Z,15.93
2023-03-02T06:20:47.856Z,18.90
2023-03-02T06:23:16.894Z,25.05
2023-03-02T06:25:49.768Z,16.13
2023-03-02T06:28:21.049Z,17.73
2023-03-02T06:30:51.060Z,18.77
2023-03-02T06:33:22.342Z,16.77
2023-03-02T06:35:51.492Z,23.55
2023-03-02T06:38:20.736Z,17.98
2023-03-02T06:40:49.857Z,17.00
2023-03-02T06:43:19.466Z,16.30
2023-03-02T06:45:48.799Z,16.90
2023-03-02T06:48:18.529Z,15.90
2023-03-02T06:50:47.396Z,16.48
2023-03-02T06:53:18.831Z,18.10
2023-03-02T06:55:49.357Z,18.77
2023-03-02T06:58:18.418Z,14.52
2023-03-02T07:00:47.565Z,21.08
2023-03-02T07:03:16.548Z,16.88
2023-03-02T07:05:46.417Z,17.15
2023-03-02T07:08:21.338Z,14.55
2023-03-02T07:10:50.267Z,16.38
2023-03-02T07:13:19.168Z,14.00
2023-03-02T07:15:48.089Z,18.15
2023-03-02T07:18:17.011Z,18.95
2023-03-02T07:20:45.910Z,19.02
2023-03-02T07:23:17.557Z,16.70
2023-03-02T07:25:49.757Z,15.35
2023-03-02T07:28:18.604Z,25.85
2023-03-02T07:30:47.614Z,20.38
2023-03-02T07:33:16.568Z,17.10
2023-03-02T07:35:45.470Z,16.23
2023-03-02T07:38:14.480Z,16.77
2023-03-02T07:40:44.309Z,16.95
2023-03-02T07:43:13.211Z,22.25
2023-03-02T07:45:44.948Z,17.65
2023-03-02T07:48:14.045Z,14.10
2023-03-02T07:50:42.900Z,17.77
2023-03-02T07:53:11.763Z,13.18
2023-03-02T07:55:44.350Z,20.05
2023-03-02T07:58:13.338Z,15.30
2023-03-02T08:00:42.798Z,19.77
2023-03-02T08:03:11.883Z,17.20
2023-03-02T08:05:40.879Z,15.52
2023-03-02T08:08:09.828Z,14.90
2023-03-02T08:10:41.188Z,18.15
2023-03-02T08:13:10.201Z,15.65
2023-03-02T08:15:39.137Z,17.77
2023-03-02T08:18:08.074Z,18.80
2023-03-02T08:20:36.974Z,15.00
2023-03-02T08:23:05.879Z,16.95
2023-03-02T08:25:35.012Z,17.13
2023-03-02T08:28:03.960Z,120.95
2023-03-02T08:30:32.940Z,114.32
2023-03-02T08:33:05.934Z,113.82
2023-03-02T08:35:35.905Z,114.45
2023-03-02T08:38:07.582Z,113.57
2023-03-02T08:40:36.416Z,115.70
2023-03-02T08:43:07.190Z,112.90
2023-03-02T08:45:37.052Z,114.88
2023-03-02T08:48:06.074Z,113.40
2023-03-02T08:50:37.891Z,130.45
2023-03-02T08:53:06.740Z,121.90
2023-03-02T08:55:37.806Z,136.18
2023-03-02T08:58:06.697Z,133.13
2023-03-02T09:00:35.557Z,127.13
2023-03-02T09:03:04.511Z,128.05
2023-03-02T09:05:33.379Z,138.02
2023-03-02T09:08:02.308Z,136.70
2023-03-02T09:10:31.222Z,128.95
2023-03-02T09:13:00.136Z,127.07
2023-03-02T09:15:29.124Z,128.52
2023-03-02T09:17:58.173Z,126.70
2023-03-02T09:20:27.109Z,131.02
2023-03-02T09:22:56.017Z,125.85
2023-03-02T09:25:24.878Z,127.13
2023-03-02T09:27:53.788Z,126.05
2023-03-02T09:30:22.669Z,128.05
2023-03-02T09:32:51.903Z,124.90
2023-03-02T09:35:20.928Z,125.95
2023-03-02T09:37:49.801Z,125.05
2023-03-02T09:40:23.550Z,135.43
2023-03-02T09:43:21.015Z,123.95
2023-03-02T09:46:05.380Z,123.38
2023-03-02T09:48:46.538Z,124.15
2023-03-02T09:51:47.776Z,124.18
2023-03-02T09:54:20.789Z,123.38
2023-03-02T09:56:52.761Z,125.15
2023-03-02T09:59:45.088Z,120.07
2023-03-02T10:02:44.089Z,121.40
2023-03-02T10:05:32.598Z,120.60
2023-03-02T10:08:01.959Z,120.20
2023-03-02T10:10:59.139Z,145.70
2023-03-02T10:13:29.993Z,132.25
2023-03-02T10:16:24.623Z,142.23
2023-03-02T10:18:53.610Z,152.88
2023-03-02T10:21:31.644Z,149.40
2023-03-02T10:24:18.316Z,151.25
2023-03-02T10:26:52.025Z,150.60
2023-03-02T10:31:53.870Z,146.05
2023-03-02T10:34:25.741Z,143.50
2023-03-02T10:36:54.662Z,152.75
2023-03-02T10:39:23.505Z,148.93
2023-03-02T10:41:59.016Z,144.68
2023-03-02T10:44:38.644Z,147.60
2023-03-02T10:47:09.640Z,143.85
2023-03-02T10:49:43.324Z,147.82
2023-03-02T10:54:44.943Z,144.90
2023-03-02T10:57:40.658Z,137.80
2023-03-02T11:00:27.449Z,138.00
2023-03-02T11:03:04.533Z,139.75
2023-03-02T11:05:45.497Z,140.95
2023-03-02T11:08:26.055Z,135.38
2023-03-02T11:11:05.812Z,134.82
2023-03-02T11:13:36.321Z,135.95
2023-03-02T11:16:27.281Z,137.05
2023-03-02T11:19:18.390Z,151.20
2023-03-02T11:22:18.054Z,162.55
2023-03-02T11:24:54.961Z,161.73
2023-03-02T11:27:38.041Z,145.52
2023-03-02T11:30:18.352Z,110.03
2023-03-02T11:33:08.861Z,114.15
2023-03-02T11:35:46.933Z,113.22
2023-03-02T11:38:28.822Z,113.18
2023-03-02T11:41:01.928Z,114.15
2023-03-02T11:43:30.933Z,114.18
2023-03-02T11:46:13.957Z,110.50
